sensor_id;sensor_type;location;lat;lon;timestamp;P1;durP1;ratioP1;P2;durP2;ratioP2
72649;SDS011;61467;50.674;4.618;2022-11-25T00:01:13;10.83;;;1.73;;
72649;SDS011;61467;50.674;4.618;2022-11-25T00:03:42;11.85;;;2.20;;
72649;SDS011;61467;50.674;4.618;2022-11-25T00:06:10;10.07;;;2.03;;
72649;SDS011;61467;50.674;4.618;2022-11-25T00:08:38;8.80;;;1.77;;
72649;SDS011;61467;50.674;4.618;2022-11-25T00:11:06;9.15;;;1.73;;
72649;SDS011;61467;50.674;4.618;2022-11-25T00:13:33;12.00;;;1.63;;
72649;SDS011;61467;50.674;4.618;2022-11-25T00:16:01;12.05;;;1.70;;
72649;SDS011;61467;50.674;4.618;2022-11-25T00:18:30;10.75;;;1.58;;
72649;SDS011;61467;50.674;4.618;2022-11-25T00:21:03;10.20;;;1.90;;
72649;SDS011;61467;50.674;4.618;2022-11-25T00:23:32;10.52;;;1.58;;
72649;SDS011;61467;50.674;4.618;2022-11-25T00:26:04;12.37;;;2.07;;
72649;SDS011;61467;50.674;4.618;2022-11-25T00:28:31;12.93;;;1.85;;
72649;SDS011;61467;50.674;4.618;2022-11-25T00:31:02;13.68;;;2.33;;
72649;SDS011;61467;50.674;4.618;2022-11-25T00:33:31;11.07;;;1.73;;
72649;SDS011;61467;50.674;4.618;2022-11-25T00:35:59;12.75;;;1.65;;
72649;SDS011;61467;50.674;4.618;2022-11-25T00:38:26;9.60;;;1.70;;
72649;SDS011;61467;50.674;4.618;2022-11-25T00:40:52;11.32;;;1.73;;
72649;SDS011;61467;50.674;4.618;2022-11-25T00:43:40;14.85;;;1.80;;
72649;SDS011;61467;50.674;4.618;2022-11-25T00:46:25;11.40;;;1.80;;
72649;SDS011;61467;50.674;4.618;2022-11-25T00:48:53;11.07;;;1.83;;
72649;SDS011;61467;50.674;4.618;2022-11-25T00:51:19;7.83;;;1.70;;
72649;SDS011;61467;50.674;4.618;2022-11-25T00:53:46;13.77;;;2.25;;
72649;SDS011;61467;50.674;4.618;2022-11-25T00:56:13;9.40;;;1.50;;
72649;SDS011;61467;50.674;4.618;2022-11-25T00:58:40;12.38;;;2.20;;
72649;SDS011;61467;50.674;4.618;2022-11-25T01:01:07;12.23;;;1.77;;
72649;SDS011;61467;50.674;4.618;2022-11-25T01:03:34;21.57;;;2.07;;
72649;SDS011;61467;50.674;4.618;2022-11-25T01:06:03;11.02;;;1.80;;
72649;SDS011;61467;50.674;4.618;2022-11-25T01:08:31;11.20;;;2.42;;
72649;SDS011;61467;50.674;4.618;2022-11-25T01:10:59;14.68;;;2.90;;
72649;SDS011;61467;50.674;4.618;2022-11-25T01:13:26;10.07;;;2.33;;
72649;SDS011;61467;50.674;4.618;2022-11-25T01:15:53;9.03;;;1.77;;
72649;SDS011;61467;50.674;4.618;2022-11-25T01:18:19;12.82;;;1.67;;
72649;SDS011;61467;50.674;4.618;2022-11-25T01:20:46;12.70;;;2.05;;
72649;SDS011;61467;50.674;4.618;2022-11-25T01:23:14;11.48;;;2.30;;
72649;SDS011;61467;50.674;4.618;2022-11-25T01:25:41;9.52;;;1.80;;
72649;SDS011;61467;50.674;4.618;2022-11-25T01:28:08;10.83;;;2.30;;
72649;SDS011;61467;50.674;4.618;2022-11-25T01:30:35;12.15;;;2.15;;
72649;SDS011;61467;50.674;4.618;2022-11-25T01:33:02;10.18;;;1.80;;
72649;SDS011;61467;50.674;4.618;2022-11-25T01:35:28;9.77;;;1.70;;
72649;SDS011;61467;50.674;4.618;2022-11-25T01:37:55;12.00;;;1.80;;
72649;SDS011;61467;50.674;4.618;2022-11-25T01:40:23;5.60;;;1.27;;
72649;SDS011;61467;50.674;4.618;2022-11-25T01:42:50;8.55;;;1.40;;
72649;SDS011;61467;50.674;4.618;2022-11-25T01:45:33;7.00;;;0.85;;
72649;SDS011;61467;50.674;4.618;2022-11-25T01:48:05;6.65;;;0.93;;
72649;SDS011;61467;50.674;4.618;2022-11-25T01:50:39;6.88;;;1.02;;
72649;SDS011;61467;50.674;4.618;2022-11-25T01:53:08;4.67;;;0.80;;
72649;SDS011;61467;50.674;4.618;2022-11-25T01:55:39;4.70;;;0.75;;
72649;SDS011;61467;50.674;4.618;2022-11-25T01:58:08;4.50;;;0.55;;
72649;SDS011;61467;50.674;4.618;2022-11-25T02:00:40;5.35;;;0.88;;
72649;SDS011;61467;50.674;4.618;2022-11-25T02:03:15;4.00;;;0.70;;
72649;SDS011;61467;50.674;4.618;2022-11-25T02:05:45;3.27;;;0.80;;
72649;SDS011;61467;50.674;4.618;2022-11-25T02:08:18;4.07;;;0.90;;
72649;SDS011;61467;50.674;4.618;2022-11-25T02:10:46;4.75;;;0.75;;
72649;SDS011;61467;50.674;4.618;2022-11-25T02:13:13;5.30;;;0.82;;
72649;SDS011;61467;50.674;4.618;2022-11-25T02:15:40;3.75;;;0.60;;
72649;SDS011;61467;50.674;4.618;2022-11-25T02:18:07;2.73;;;0.43;;
72649;SDS011;61467;50.674;4.618;2022-11-25T02:20:34;4.00;;;0.82;;
72649;SDS011;61467;50.674;4.618;2022-11-25T02:23:04;4.13;;;0.88;;
72649;SDS011;61467;50.674;4.618;2022-11-25T02:25:40;6.45;;;1.10;;
72649;SDS011;61467;50.674;4.618;2022-11-25T02:28:09;6.93;;;1.63;;
72649;SDS011;61467;50.674;4.618;2022-11-25T02:30:38;6.40;;;1.63;;
72649;SDS011;61467;50.674;4.618;2022-11-25T02:33:05;6.22;;;1.70;;
72649;SDS011;61467;50.674;4.618;2022-11-25T02:35:32;5.95;;;1.30;;
72649;SDS011;61467;50.674;4.618;2022-11-25T02:38:02;4.40;;;1.13;;
72649;SDS011;61467;50.674;4.618;2022-11-25T02:40:33;6.57;;;1.23;;
72649;SDS011;61467;50.674;4.618;2022-11-25T02:43:03;9.30;;;1.30;;
72649;SDS011;61467;50.674;4.618;2022-11-25T02:45:32;9.13;;;1.90;;
72649;SDS011;61467;50.674;4.618;2022-11-25T02:48:06;8.25;;;1.83;;
72649;SDS011;61467;50.674;4.618;2022-11-25T02:50:33;9.48;;;1.55;;
72649;SDS011;61467;50.674;4.618;2022-11-25T02:53:00;8.35;;;1.77;;
72649;SDS011;61467;50.674;4.618;2022-11-25T02:55:26;8.67;;;2.00;;
72649;SDS011;61467;50.674;4.618;2022-11-25T02:57:53;8.05;;;1.85;;
72649;SDS011;61467;50.674;4.618;2022-11-25T03:00:21;7.35;;;1.60;;
72649;SDS011;61467;50.674;4.618;2022-11-25T03:02:49;11.60;;;1.90;;
72649;SDS011;61467;50.674;4.618;2022-11-25T03:05:18;10.13;;;2.30;;
72649;SDS011;61467;50.674;4.618;2022-11-25T03:07:45;7.87;;;1.83;;
72649;SDS011;61467;50.674;4.618;2022-11-25T03:10:12;9.70;;;1.98;;
72649;SDS011;61467;50.674;4.618;2022-11-25T03:12:39;12.57;;;2.00;;
72649;SDS011;61467;50.674;4.618;2022-11-25T03:15:06;9.27;;;1.85;;
72649;SDS011;61467;50.674;4.618;2022-11-25T03:17:36;8.98;;;1.75;;
72649;SDS011;61467;50.674;4.618;2022-11-25T03:20:03;10.27;;;1.80;;
72649;SDS011;61467;50.674;4.618;2022-11-25T03:22:30;11.38;;;2.40;;
72649;SDS011;61467;50.674;4.618;2022-11-25T03:24:57;7.05;;;1.67;;
72649;SDS011;61467;50.674;4.618;2022-11-25T03:27:23;9.18;;;1.63;;
72649;SDS011;61467;50.674;4.618;2022-11-25T03:29:50;6.47;;;2.30;;
72649;SDS011;61467;50.674;4.618;2022-11-25T03:32:18;7.23;;;1.70;;
72649;SDS011;61467;50.674;4.618;2022-11-25T03:34:46;7.75;;;1.63;;
72649;SDS011;61467;50.674;4.618;2022-11-25T03:37:13;8.60;;;1.77;;
72649;SDS011;61467;50.674;4.618;2022-11-25T03:39:39;6.18;;;1.45;;
72649;SDS011;61467;50.674;4.618;2022-11-25T03:42:06;8.40;;;2.13;;
72649;SDS011;61467;50.674;4.618;2022-11-25T03:44:33;9.77;;;1.73;;
72649;SDS011;61467;50.674;4.618;2022-11-25T03:46:59;8.88;;;2.20;;
72649;SDS011;61467;50.674;4.618;2022-11-25T03:49:26;12.23;;;1.70;;
72649;SDS011;61467;50.674;4.618;2022-11-25T03:51:54;8.10;;;1.77;;
72649;SDS011;61467;50.674;4.618;2022-11-25T03:54:21;10.77;;;1.90;;
72649;SDS011;61467;50.674;4.618;2022-11-25T03:56:48;9.27;;;2.03;;
72649;SDS011;61467;50.674;4.618;2022-11-25T03:59:14;7.30;;;1.77;;
72649;SDS011;61467;50.674;4.618;2022-11-25T04:01:41;10.15;;;1.98;;
72649;SDS011;61467;50.674;4.618;2022-11-25T04:04:08;8.50;;;1.92;;
72649;SDS011;61467;50.674;4.618;2022-11-25T04:06:35;8.93;;;2.03;;
72649;SDS011;61467;50.674;4.618;2022-11-25T04:09:04;10.40;;;1.93;;
72649;SDS011;61467;50.674;4.618;2022-11-25T04:11:31;9.30;;;1.92;;
72649;SDS011;61467;50.674;4.618;2022-11-25T04:14:12;9.57;;;2.15;;
72649;SDS011;61467;50.674;4.618;2022-11-25T04:16:38;8.20;;;2.15;;
72649;SDS011;61467;50.674;4.618;2022-11-25T04:19:05;8.27;;;2.03;;
72649;SDS011;61467;50.674;4.618;2022-11-25T04:21:32;11.40;;;2.13;;
72649;SDS011;61467;50.674;4.618;2022-11-25T04:23:58;8.90;;;2.10;;
72649;SDS011;61467;50.674;4.618;2022-11-25T04:26:27;11.60;;;2.08;;
72649;SDS011;61467;50.674;4.618;2022-11-25T04:28:53;8.48;;;2.10;;
72649;SDS011;61467;50.674;4.618;2022-11-25T04:31:20;9.02;;;2.20;;
72649;SDS011;61467;50.674;4.618;2022-11-25T04:33:47;8.63;;;1.97;;
72649;SDS011;61467;50.674;4.618;2022-11-25T04:36:13;11.38;;;2.28;;
72649;SDS011;61467;50.674;4.618;2022-11-25T04:38:40;12.93;;;2.20;;
72649;SDS011;61467;50.674;4.618;2022-11-25T04:41:07;9.82;;;2.10;;
72649;SDS011;61467;50.674;4.618;2022-11-25T04:43:35;8.52;;;2.10;;
72649;SDS011;61467;50.674;4.618;2022-11-25T04:46:01;9.10;;;1.63;;
72649;SDS011;61467;50.674;4.618;2022-11-25T04:48:29;9.23;;;1.77;;
72649;SDS011;61467;50.674;4.618;2022-11-25T04:50:55;8.00;;;2.00;;
72649;SDS011;61467;50.674;4.618;2022-11-25T04:53:22;8.20;;;1.50;;
72649;SDS011;61467;50.674;4.618;2022-11-25T04:55:49;9.52;;;2.47;;
72649;SDS011;61467;50.674;4.618;2022-11-25T04:58:15;9.80;;;1.80;;
72649;SDS011;61467;50.674;4.618;2022-11-25T05:01:04;7.78;;;2.33;;
72649;SDS011;61467;50.674;4.618;2022-11-25T05:03:29;8.60;;;1.50;;
72649;SDS011;61467;50.674;4.618;2022-11-25T05:05:56;9.82;;;1.60;;
72649;SDS011;61467;50.674;4.618;2022-11-25T05:08:23;8.13;;;1.65;;
72649;SDS011;61467;50.674;4.618;2022-11-25T05:10:49;11.17;;;2.00;;
72649;SDS011;61467;50.674;4.618;2022-11-25T05:13:16;13.68;;;1.92;;
72649;SDS011;61467;50.674;4.618;2022-11-25T05:15:42;9.50;;;1.80;;
72649;SDS011;61467;50.674;4.618;2022-11-25T05:18:10;10.85;;;1.90;;
72649;SDS011;61467;50.674;4.618;2022-11-25T05:20:37;9.05;;;1.70;;
72649;SDS011;61467;50.674;4.618;2022-11-25T05:23:04;10.60;;;1.87;;
72649;SDS011;61467;50.674;4.618;2022-11-25T05:25:30;6.88;;;1.70;;
72649;SDS011;61467;50.674;4.618;2022-11-25T05:27:57;7.55;;;1.80;;
72649;SDS011;61467;50.674;4.618;2022-11-25T05:30:24;9.30;;;2.10;;
72649;SDS011;61467;50.674;4.618;2022-11-25T05:32:50;9.00;;;1.88;;
72649;SDS011;61467;50.674;4.618;2022-11-25T05:35:19;10.77;;;1.70;;
72649;SDS011;61467;50.674;4.618;2022-11-25T05:37:46;10.02;;;2.40;;
72649;SDS011;61467;50.674;4.618;2022-11-25T05:40:13;9.32;;;1.40;;
72649;SDS011;61467;50.674;4.618;2022-11-25T05:42:40;9.88;;;1.75;;
72649;SDS011;61467;50.674;4.618;2022-11-25T05:45:07;9.10;;;2.00;;
72649;SDS011;61467;50.674;4.618;2022-11-25T05:47:35;9.57;;;1.80;;
72649;SDS011;61467;50.674;4.618;2022-11-25T05:50:02;8.93;;;1.85;;
72649;SDS011;61467;50.674;4.618;2022-11-25T05:52:30;7.88;;;1.88;;
72649;SDS011;61467;50.674;4.618;2022-11-25T05:54:57;9.50;;;2.10;;
72649;SDS011;61467;50.674;4.618;2022-11-25T05:57:23;11.48;;;2.60;;
72649;SDS011;61467;50.674;4.618;2022-11-25T05:59:50;9.57;;;1.70;;
72649;SDS011;61467;50.674;4.618;2022-11-25T06:02:17;9.95;;;1.92;;
72649;SDS011;61467;50.674;4.618;2022-11-25T06:04:43;9.10;;;2.13;;
72649;SDS011;61467;50.674;4.618;2022-11-25T06:07:10;11.13;;;2.00;;
72649;SDS011;61467;50.674;4.618;2022-11-25T06:09:38;6.15;;;1.77;;
72649;SDS011;61467;50.674;4.618;2022-11-25T06:12:05;8.93;;;2.30;;
72649;SDS011;61467;50.674;4.618;2022-11-25T06:14:32;9.77;;;2.20;;
72649;SDS011;61467;50.674;4.618;2022-11-25T06:16:58;11.35;;;2.15;;
72649;SDS011;61467;50.674;4.618;2022-11-25T06:19:25;12.63;;;2.28;;
72649;SDS011;61467;50.674;4.618;2022-11-25T06:21:52;11.45;;;2.15;;
72649;SDS011;61467;50.674;4.618;2022-11-25T06:24:18;8.13;;;1.90;;
72649;SDS011;61467;50.674;4.618;2022-11-25T06:26:46;7.38;;;2.10;;
72649;SDS011;61467;50.674;4.618;2022-11-25T06:29:13;11.38;;;2.70;;
72649;SDS011;61467;50.674;4.618;2022-11-25T06:31:40;9.85;;;1.70;;
72649;SDS011;61467;50.674;4.618;2022-11-25T06:34:06;10.10;;;1.85;;
72649;SDS011;61467;50.674;4.618;2022-11-25T06:36:33;7.53;;;2.20;;
72649;SDS011;61467;50.674;4.618;2022-11-25T06:39:00;9.98;;;2.30;;
72649;SDS011;61467;50.674;4.618;2022-11-25T06:41:27;11.50;;;2.55;;
72649;SDS011;61467;50.674;4.618;2022-11-25T06:43:55;11.27;;;2.70;;
72649;SDS011;61467;50.674;4.618;2022-11-25T06:46:21;9.60;;;2.30;;
72649;SDS011;61467;50.674;4.618;2022-11-25T06:48:48;10.13;;;2.43;;
72649;SDS011;61467;50.674;4.618;2022-11-25T06:51:15;9.93;;;2.60;;
72649;SDS011;61467;50.674;4.618;2022-11-25T06:53:42;9.13;;;2.13;;
72649;SDS011;61467;50.674;4.618;2022-11-25T06:56:10;11.27;;;2.15;;
72649;SDS011;61467;50.674;4.618;2022-11-25T06:58:38;9.13;;;2.13;;
72649;SDS011;61467;50.674;4.618;2022-11-25T07:01:07;9.50;;;2.03;;
72649;SDS011;61467;50.674;4.618;2022-11-25T07:03:37;9.95;;;2.22;;
72649;SDS011;61467;50.674;4.618;2022-11-25T07:06:05;9.73;;;2.53;;
72649;SDS011;61467;50.674;4.618;2022-11-25T07:08:32;8.95;;;2.05;;
72649;SDS011;61467;50.674;4.618;2022-11-25T07:11:03;11.95;;;2.47;;
72649;SDS011;61467;50.674;4.618;2022-11-25T07:13:31;11.10;;;2.17;;
72649;SDS011;61467;50.674;4.618;2022-11-25T07:16:01;10.70;;;2.25;;
72649;SDS011;61467;50.674;4.618;2022-11-25T07:18:30;9.35;;;2.40;;
72649;SDS011;61467;50.674;4.618;2022-11-25T07:21:00;12.60;;;2.50;;
72649;SDS011;61467;50.674;4.618;2022-11-25T07:23:28;10.50;;;2.10;;
72649;SDS011;61467;50.674;4.618;2022-11-25T07:25:59;10.07;;;2.17;;
72649;SDS011;61467;50.674;4.618;2022-11-25T07:28:27;11.23;;;2.45;;
72649;SDS011;61467;50.674;4.618;2022-11-25T07:30:53;16.02;;;2.78;;
72649;SDS011;61467;50.674;4.618;2022-11-25T07:33:20;11.85;;;2.40;;
72649;SDS011;61467;50.674;4.618;2022-11-25T07:35:48;10.80;;;2.67;;
72649;SDS011;61467;50.674;4.618;2022-11-25T07:38:14;9.40;;;2.43;;
72649;SDS011;61467;50.674;4.618;2022-11-25T07:40:41;9.70;;;2.20;;
72649;SDS011;61467;50.674;4.618;2022-11-25T07:43:08;14.55;;;2.53;;
72649;SDS011;61467;50.674;4.618;2022-11-25T07:45:35;9.07;;;1.98;;
72649;SDS011;61467;50.674;4.618;2022-11-25T07:48:01;12.05;;;2.08;;
72649;SDS011;61467;50.674;4.618;2022-11-25T07:50:28;12.77;;;2.10;;
72649;SDS011;61467;50.674;4.618;2022-11-25T07:52:56;10.32;;;2.17;;
72649;SDS011;61467;50.674;4.618;2022-11-25T07:55:23;9.07;;;2.17;;
72649;SDS011;61467;50.674;4.618;2022-11-25T07:57:50;10.15;;;1.70;;
72649;SDS011;61467;50.674;4.618;2022-11-25T08:00:17;9.60;;;2.47;;
72649;SDS011;61467;50.674;4.618;2022-11-25T08:02:44;10.03;;;2.77;;
72649;SDS011;61467;50.674;4.618;2022-11-25T08:05:10;12.15;;;2.58;;
72649;SDS011;61467;50.674;4.618;2022-11-25T08:07:37;11.07;;;2.88;;
72649;SDS011;61467;50.674;4.618;2022-11-25T08:10:06;12.10;;;2.50;;
72649;SDS011;61467;50.674;4.618;2022-11-25T08:12:33;10.20;;;2.13;;
72649;SDS011;61467;50.674;4.618;2022-11-25T08:14:59;10.37;;;2.27;;
72649;SDS011;61467;50.674;4.618;2022-11-25T08:17:26;11.93;;;2.20;;
72649;SDS011;61467;50.674;4.618;2022-11-25T08:19:53;13.38;;;2.28;;
72649;SDS011;61467;50.674;4.618;2022-11-25T08:22:19;10.25;;;1.98;;
72649;SDS011;61467;50.674;4.618;2022-11-25T08:24:46;12.68;;;2.75;;
72649;SDS011;61467;50.674;4.618;2022-11-25T08:27:14;10.10;;;2.27;;
72649;SDS011;61467;50.674;4.618;2022-11-25T08:29:41;10.13;;;2.10;;
72649;SDS011;61467;50.674;4.618;2022-11-25T08:32:07;9.90;;;2.00;;
72649;SDS011;61467;50.674;4.618;2022-11-25T08:34:34;15.32;;;2.95;;
72649;SDS011;61467;50.674;4.618;2022-11-25T08:37:00;9.43;;;2.38;;
72649;SDS011;61467;50.674;4.618;2022-11-25T08:39:27;10.57;;;2.70;;
72649;SDS011;61467;50.674;4.618;2022-11-25T08:41:55;9.00;;;2.45;;
72649;SDS011;61467;50.674;4.618;2022-11-25T08:44:23;13.23;;;2.58;;
72649;SDS011;61467;50.674;4.618;2022-11-25T08:46:52;12.23;;;2.50;;
72649;SDS011;61467;50.674;4.618;2022-11-25T08:49:18;7.43;;;2.42;;
72649;SDS011;61467;50.674;4.618;2022-11-25T08:51:46;10.03;;;2.03;;
72649;SDS011;61467;50.674;4.618;2022-11-25T08:54:13;8.18;;;2.22;;
72649;SDS011;61467;50.674;4.618;2022-11-25T08:56:39;11.70;;;2.35;;
72649;SDS011;61467;50.674;4.618;2022-11-25T08:59:07;12.20;;;2.50;;
72649;SDS011;61467;50.674;4.618;2022-11-25T09:01:35;11.45;;;2.38;;
72649;SDS011;61467;50.674;4.618;2022-11-25T09:04:02;15.17;;;3.03;;
72649;SDS011;61467;50.674;4.618;2022-11-25T09:06:28;15.57;;;2.90;;
72649;SDS011;61467;50.674;4.618;2022-11-25T09:08:56;11.38;;;3.17;;
72649;SDS011;61467;50.674;4.618;2022-11-25T09:11:25;12.88;;;2.88;;
72649;SDS011;61467;50.674;4.618;2022-11-25T09:13:53;15.68;;;3.42;;
72649;SDS011;61467;50.674;4.618;2022-11-25T09:16:19;13.77;;;2.30;;
72649;SDS011;61467;50.674;4.618;2022-11-25T09:18:47;13.35;;;2.53;;
72649;SDS011;61467;50.674;4.618;2022-11-25T09:21:16;14.27;;;2.20;;
72649;SDS011;61467;50.674;4.618;2022-11-25T09:23:43;15.05;;;2.53;;
72649;SDS011;61467;50.674;4.618;2022-11-25T09:26:15;10.93;;;2.20;;
72649;SDS011;61467;50.674;4.618;2022-11-25T09:28:45;12.63;;;2.23;;
72649;SDS011;61467;50.674;4.618;2022-11-25T09:31:12;8.50;;;2.05;;
72649;SDS011;61467;50.674;4.618;2022-11-25T09:33:38;12.70;;;2.67;;
72649;SDS011;61467;50.674;4.618;2022-11-25T09:36:07;10.45;;;2.53;;
72649;SDS011;61467;50.674;4.618;2022-11-25T09:38:34;12.05;;;3.17;;
72649;SDS011;61467;50.674;4.618;2022-11-25T09:41:02;7.87;;;2.07;;
72649;SDS011;61467;50.674;4.618;2022-11-25T09:43:35;8.75;;;2.40;;
72649;SDS011;61467;50.674;4.618;2022-11-25T09:46:34;9.52;;;2.13;;
72649;SDS011;61467;50.674;4.618;2022-11-25T09:49:12;11.77;;;2.53;;
72649;SDS011;61467;50.674;4.618;2022-11-25T09:51:53;16.63;;;2.55;;
72649;SDS011;61467;50.674;4.618;2022-11-25T09:54:28;13.93;;;2.87;;
72649;SDS011;61467;50.674;4.618;2022-11-25T09:57:01;10.35;;;2.58;;
72649;SDS011;61467;50.674;4.618;2022-11-25T09:59:33;11.73;;;2.67;;
72649;SDS011;61467;50.674;4.618;2022-11-25T10:02:09;13.73;;;3.03;;
72649;SDS011;61467;50.674;4.618;2022-11-25T10:04:41;10.52;;;2.75;;
72649;SDS011;61467;50.674;4.618;2022-11-25T10:07:16;9.80;;;2.83;;
72649;SDS011;61467;50.674;4.618;2022-11-25T10:09:46;11.68;;;3.08;;
72649;SDS011;61467;50.674;4.618;2022-11-25T10:12:20;10.35;;;1.98;;
72649;SDS011;61467;50.674;4.618;2022-11-25T10:14:52;7.43;;;1.95;;
72649;SDS011;61467;50.674;4.618;2022-11-25T10:17:26;11.23;;;2.22;;
72649;SDS011;61467;50.674;4.618;2022-11-25T10:20:03;11.83;;;2.50;;
72649;SDS011;61467;50.674;4.618;2022-11-25T10:22:34;7.97;;;2.17;;
72649;SDS011;61467;50.674;4.618;2022-11-25T10:25:11;14.88;;;2.90;;
72649;SDS011;61467;50.674;4.618;2022-11-25T10:27:40;13.38;;;2.95;;
72649;SDS011;61467;50.674;4.618;2022-11-25T10:30:14;9.60;;;2.10;;
72649;SDS011;61467;50.674;4.618;2022-11-25T10:32:44;10.47;;;2.13;;
72649;SDS011;61467;50.674;4.618;2022-11-25T10:35:19;11.43;;;1.92;;
72649;SDS011;61467;50.674;4.618;2022-11-25T10:37:52;8.98;;;1.80;;
72649;SDS011;61467;50.674;4.618;2022-11-25T10:40:23;12.95;;;1.90;;
72649;SDS011;61467;50.674;4.618;2022-11-25T10:42:50;6.15;;;1.50;;
72649;SDS011;61467;50.674;4.618;2022-11-25T10:45:16;9.07;;;1.67;;
72649;SDS011;61467;50.674;4.618;2022-11-25T10:47:54;9.32;;;1.90;;
72649;SDS011;61467;50.674;4.618;2022-11-25T10:50:32;7.28;;;1.48;;
72649;SDS011;61467;50.674;4.618;2022-11-25T10:53:13;7.30;;;1.38;;
72649;SDS011;61467;50.674;4.618;2022-11-25T10:55:54;6.05;;;1.35;;
72649;SDS011;61467;50.674;4.618;2022-11-25T10:58:25;5.87;;;1.10;;
72649;SDS011;61467;50.674;4.618;2022-11-25T11:01:05;6.13;;;1.70;;
72649;SDS011;61467;50.674;4.618;2022-11-25T11:03:38;8.63;;;2.25;;
72649;SDS011;61467;50.674;4.618;2022-11-25T11:06:05;6.78;;;1.58;;
72649;SDS011;61467;50.674;4.618;2022-11-25T11:08:37;8.38;;;1.45;;
72649;SDS011;61467;50.674;4.618;2022-11-25T11:11:09;7.33;;;2.07;;
72649;SDS011;61467;50.674;4.618;2022-11-25T11:13:43;6.85;;;1.90;;
72649;SDS011;61467;50.674;4.618;2022-11-25T11:16:20;6.13;;;1.40;;
72649;SDS011;61467;50.674;4.618;2022-11-25T11:18:51;7.03;;;1.50;;
72649;SDS011;61467;50.674;4.618;2022-11-25T11:21:21;6.05;;;1.20;;
72649;SDS011;61467;50.674;4.618;2022-11-25T11:23:52;10.70;;;1.47;;
72649;SDS011;61467;50.674;4.618;2022-11-25T11:26:22;8.68;;;1.45;;
72649;SDS011;61467;50.674;4.618;2022-11-25T11:28:56;6.05;;;1.50;;
72649;SDS011;61467;50.674;4.618;2022-11-25T11:31:25;9.43;;;1.50;;
72649;SDS011;61467;50.674;4.618;2022-11-25T11:33:55;6.30;;;1.30;;
72649;SDS011;61467;50.674;4.618;2022-11-25T11:36:30;7.20;;;1.33;;
72649;SDS011;61467;50.674;4.618;2022-11-25T11:39:12;6.63;;;1.33;;
72649;SDS011;61467;50.674;4.618;2022-11-25T11:41:51;7.72;;;1.80;;
72649;SDS011;61467;50.674;4.618;2022-11-25T11:44:26;6.82;;;1.55;;
72649;SDS011;61467;50.674;4.618;2022-11-25T11:47:05;16.70;;;1.70;;
72649;SDS011;61467;50.674;4.618;2022-11-25T11:50:00;7.47;;;1.83;;
72649;SDS011;61467;50.674;4.618;2022-11-25T11:52:42;8.32;;;1.50;;
72649;SDS011;61467;50.674;4.618;2022-11-25T11:55:27;9.43;;;2.53;;
72649;SDS011;61467;50.674;4.618;2022-11-25T11:58:08;8.95;;;1.85;;
72649;SDS011;61467;50.674;4.618;2022-11-25T12:00:44;6.13;;;1.70;;
72649;SDS011;61467;50.674;4.618;2022-11-25T12:03:17;10.40;;;1.70;;
72649;SDS011;61467;50.674;4.618;2022-11-25T12:05:47;8.18;;;1.90;;
72649;SDS011;61467;50.674;4.618;2022-11-25T12:08:19;9.60;;;1.85;;
72649;SDS011;61467;50.674;4.618;2022-11-25T12:10:55;7.05;;;1.77;;
72649;SDS011;61467;50.674;4.618;2022-11-25T12:13:26;10.52;;;1.83;;
72649;SDS011;61467;50.674;4.618;2022-11-25T12:16:03;11.10;;;1.93;;
72649;SDS011;61467;50.674;4.618;2022-11-25T12:18:37;9.02;;;1.52;;
72649;SDS011;61467;50.674;4.618;2022-11-25T12:21:10;10.68;;;1.50;;
72649;SDS011;61467;50.674;4.618;2022-11-25T12:23:43;7.75;;;1.67;;
72649;SDS011;61467;50.674;4.618;2022-11-25T12:26:19;8.73;;;1.63;;
72649;SDS011;61467;50.674;4.618;2022-11-25T12:28:54;10.10;;;1.67;;
72649;SDS011;61467;50.674;4.618;2022-11-25T12:31:25;11.43;;;2.05;;
72649;SDS011;61467;50.674;4.618;2022-11-25T12:33:56;8.55;;;1.83;;
72649;SDS011;61467;50.674;4.618;2022-11-25T12:36:30;11.18;;;1.65;;
72649;SDS011;61467;50.674;4.618;2022-11-25T12:39:01;7.60;;;1.38;;
72649;SDS011;61467;50.674;4.618;2022-11-25T12:41:34;8.90;;;1.73;;
72649;SDS011;61467;50.674;4.618;2022-11-25T12:44:07;10.98;;;1.40;;
72649;SDS011;61467;50.674;4.618;2022-11-25T12:46:40;14.13;;;2.28;;
72649;SDS011;61467;50.674;4.618;2022-11-25T12:49:13;7.72;;;1.58;;
72649;SDS011;61467;50.674;4.618;2022-11-25T12:54:44;9.80;;;1.60;;
72649;SDS011;61467;50.674;4.618;2022-11-25T13:00:34;10.05;;;2.13;;
72649;SDS011;61467;50.674;4.618;2022-11-25T13:03:39;8.88;;;1.65;;
72649;SDS011;61467;50.674;4.618;2022-11-25T13:09:45;9.70;;;1.80;;
72649;SDS011;61467;50.674;4.618;2022-11-25T13:12:27;9.93;;;1.92;;
72649;SDS011;61467;50.674;4.618;2022-11-25T13:15:02;8.45;;;1.73;;
72649;SDS011;61467;50.674;4.618;2022-11-25T13:17:47;11.77;;;1.75;;
72649;SDS011;61467;50.674;4.618;2022-11-25T13:20:25;9.70;;;1.85;;
72649;SDS011;61467;50.674;4.618;2022-11-25T13:23:05;7.83;;;1.63;;
72649;SDS011;61467;50.674;4.618;2022-11-25T13:25:35;8.30;;;1.52;;
72649;SDS011;61467;50.674;4.618;2022-11-25T13:28:03;10.75;;;1.92;;
72649;SDS011;61467;50.674;4.618;2022-11-25T13:30:37;11.07;;;1.60;;
72649;SDS011;61467;50.674;4.618;2022-11-25T13:36:21;9.90;;;1.50;;
72649;SDS011;61467;50.674;4.618;2022-11-25T13:38:58;10.75;;;2.00;;
72649;SDS011;61467;50.674;4.618;2022-11-25T13:41:31;11.45;;;1.88;;
72649;SDS011;61467;50.674;4.618;2022-11-25T13:44:03;12.65;;;1.80;;
72649;SDS011;61467;50.674;4.618;2022-11-25T13:46:34;10.63;;;1.90;;
72649;SDS011;61467;50.674;4.618;2022-11-25T13:49:04;12.40;;;2.23;;
72649;SDS011;61467;50.674;4.618;2022-11-25T13:51:33;14.25;;;1.95;;
72649;SDS011;61467;50.674;4.618;2022-11-25T13:54:02;8.98;;;2.13;;
72649;SDS011;61467;50.674;4.618;2022-11-25T13:56:32;12.77;;;1.80;;
72649;SDS011;61467;50.674;4.618;2022-11-25T13:59:32;9.32;;;2.10;;
72649;SDS011;61467;50.674;4.618;2022-11-25T14:02:22;10.07;;;2.17;;
72649;SDS011;61467;50.674;4.618;2022-11-25T14:04:59;8.65;;;2.22;;
72649;SDS011;61467;50.674;4.618;2022-11-25T14:07:33;12.32;;;1.50;;
72649;SDS011;61467;50.674;4.618;2022-11-25T14:13:04;7.68;;;1.58;;
72649;SDS011;61467;50.674;4.618;2022-11-25T14:15:43;11.43;;;1.90;;
72649;SDS011;61467;50.674;4.618;2022-11-25T14:18:27;9.65;;;1.70;;
72649;SDS011;61467;50.674;4.618;2022-11-25T14:21:02;10.15;;;2.17;;
72649;SDS011;61467;50.674;4.618;2022-11-25T14:26:32;10.82;;;1.73;;
72649;SDS011;61467;50.674;4.618;2022-11-25T14:29:02;9.83;;;2.03;;
72649;SDS011;61467;50.674;4.618;2022-11-25T14:31:33;8.80;;;1.85;;
72649;SDS011;61467;50.674;4.618;2022-11-25T14:34:04;11.20;;;2.30;;
72649;SDS011;61467;50.674;4.618;2022-11-25T14:36:38;16.08;;;2.67;;
72649;SDS011;61467;50.674;4.618;2022-11-25T14:39:12;12.95;;;1.92;;
72649;SDS011;61467;50.674;4.618;2022-11-25T14:41:48;9.93;;;2.27;;
72649;SDS011;61467;50.674;4.618;2022-11-25T14:44:23;11.13;;;2.22;;
72649;SDS011;61467;50.674;4.618;2022-11-25T14:46:55;12.52;;;2.67;;
72649;SDS011;61467;50.674;4.618;2022-11-25T14:49:23;12.73;;;2.10;;
72649;SDS011;61467;50.674;4.618;2022-11-25T14:51:50;11.57;;;2.17;;
72649;SDS011;61467;50.674;4.618;2022-11-25T14:54:19;11.20;;;2.00;;
72649;SDS011;61467;50.674;4.618;2022-11-25T14:56:46;12.30;;;2.45;;
72649;SDS011;61467;50.674;4.618;2022-11-25T14:59:14;13.38;;;2.22;;
72649;SDS011;61467;50.674;4.618;2022-11-25T15:01:49;13.98;;;2.42;;
72649;SDS011;61467;50.674;4.618;2022-11-25T15:04:18;9.82;;;1.90;;
72649;SDS011;61467;50.674;4.618;2022-11-25T15:06:47;10.73;;;2.03;;
72649;SDS011;61467;50.674;4.618;2022-11-25T15:09:17;13.05;;;2.13;;
72649;SDS011;61467;50.674;4.618;2022-11-25T15:11:50;14.13;;;2.80;;
72649;SDS011;61467;50.674;4.618;2022-11-25T15:14:22;13.20;;;2.45;;
72649;SDS011;61467;50.674;4.618;2022-11-25T15:16:50;12.18;;;1.98;;